sensor_id;sensor_type;location;lat;lon;timestamp;temperature;humidity
25504;DHT22;13410;52.114;5.718;2024-01-30T00:01:52;12.60;99.90
25504;DHT22;13410;52.114;5.718;2024-01-30T00:04:18;12.40;99.90
25504;DHT22;13410;52.114;5.718;2024-01-30T00:06:44;12.50;99.90
25504;DHT22;13410;52.114;5.718;2024-01-30T00:09:10;12.50;99.90
25504;DHT22;13410;52.114;5.718;2024-01-30T00:11:36;12.50;99.90
25504;DHT22;13410;52.114;5.718;2024-01-30T00:14:02;12.50;99.90
25504;DHT22;13410;52.114;5.718;2024-01-30T00:16:28;12.50;99.90
25504;DHT22;13410;52.114;5.718;2024-01-30T00:18:54;12.40;99.90
25504;DHT22;13410;52.114;5.718;2024-01-30T00:21:21;12.40;99.90
25504;DHT22;13410;52.114;5.718;2024-01-30T00:23:46;12.50;99.90
25504;DHT22;13410;52.114;5.718;2024-01-30T00:26:12;12.40;99.90
25504;DHT22;13410;52.114;5.718;2024-01-30T00:28:40;12.20;99.90
25504;DHT22;13410;52.114;5.718;2024-01-30T00:31:06;12.30;99.90
25504;DHT22;13410;52.114;5.718;2024-01-30T00:33:31;12.40;99.90
25504;DHT22;13410;52.114;5.718;2024-01-30T00:35:57;12.30;99.90
25504;DHT22;13410;52.114;5.718;2024-01-30T00:38:23;12.30;99.90
25504;DHT22;13410;52.114;5.718;2024-01-30T00:40:48;12.30;99.90
25504;DHT22;13410;52.114;5.718;2024-01-30T00:43:15;12.20;99.90
25504;DHT22;13410;52.114;5.718;2024-01-30T00:45:41;12.20;99.90
25504;DHT22;13410;52.114;5.718;2024-01-30T00:48:06;12.20;99.90
25504;DHT22;13410;52.114;5.718;2024-01-30T00:50:32;12.20;99.90
25504;DHT22;13410;52.114;5.718;2024-01-30T00:52:58;12.30;99.90
25504;DHT22;13410;52.114;5.718;2024-01-30T00:55:23;12.20;99.90
25504;DHT22;13410;52.114;5.718;2024-01-30T00:57:49;12.20;99.90
25504;DHT22;13410;52.114;5.718;2024-01-30T01:00:15;12.20;99.90
25504;DHT22;13410;52.114;5.718;2024-01-30T01:02:42;12.20;99.90
25504;DHT22;13410;52.114;5.718;2024-01-30T01:05:08;12.10;99.90
25504;DHT22;13410;52.114;5.718;2024-01-30T01:07:34;12.00;99.90
25504;DHT22;13410;52.114;5.718;2024-01-30T01:09:59;12.10;99.90
25504;DHT22;13410;52.114;5.718;2024-01-30T01:12:25;11.90;99.90
25504;DHT22;13410;52.114;5.718;2024-01-30T01:14:51;11.90;99.90
25504;DHT22;13410;52.114;5.718;2024-01-30T01:17:16;11.80;99.90
25504;DHT22;13410;52.114;5.718;2024-01-30T01:19:43;12.00;99.90
25504;DHT22;13410;52.114;5.718;2024-01-30T01:22:09;12.00;99.90
25504;DHT22;13410;52.114;5.718;2024-01-30T01:24:36;11.90;99.90
25504;DHT22;13410;52.114;5.718;2024-01-30T01:27:01;12.00;99.90
25504;DHT22;13410;52.114;5.718;2024-01-30T01:29:27;12.00;99.90
25504;DHT22;13410;52.114;5.718;2024-01-30T01:31:58;12.00;99.90
25504;DHT22;13410;52.114;5.718;2024-01-30T01:34:24;12.20;99.90
25504;DHT22;13410;52.114;5.718;2024-01-30T01:36:50;12.10;99.90
25504;DHT22;13410;52.114;5.718;2024-01-30T01:39:16;12.00;99.90
25504;DHT22;13410;52.114;5.718;2024-01-30T01:41:42;12.00;99.90
25504;DHT22;13410;52.114;5.718;2024-01-30T01:44:08;11.90;99.90
25504;DHT22;13410;52.114;5.718;2024-01-30T01:46:36;11.80;99.90
25504;DHT22;13410;52.114;5.718;2024-01-30T01:49:03;11.80;99.90
25504;DHT22;13410;52.114;5.718;2024-01-30T01:51:31;11.80;99.90
25504;DHT22;13410;52.114;5.718;2024-01-30T01:54:00;11.70;99.90
25504;DHT22;13410;52.114;5.718;2024-01-30T01:56:28;11.60;99.90
25504;DHT22;13410;52.114;5.718;2024-01-30T01:58:55;11.80;99.90
25504;DHT22;13410;52.114;5.718;2024-01-30T02:01:21;11.60;99.90
25504;DHT22;13410;52.114;5.718;2024-01-30T02:03:48;11.80;99.90
25504;DHT22;13410;52.114;5.718;2024-01-30T02:06:14;11.60;99.90
25504;DHT22;13410;52.114;5.718;2024-01-30T02:08:41;11.60;99.90
25504;DHT22;13410;52.114;5.718;2024-01-30T02:11:08;11.70;99.90
25504;DHT22;13410;52.114;5.718;2024-01-30T02:13:35;11.70;99.90
25504;DHT22;13410;52.114;5.718;2024-01-30T02:16:01;11.70;99.90
25504;DHT22;13410;52.114;5.718;2024-01-30T02:18:26;11.70;99.90
25504;DHT22;13410;52.114;5.718;2024-01-30T02:20:55;11.70;99.90
25504;DHT22;13410;52.114;5.718;2024-01-30T02:23:23;11.70;99.90
25504;DHT22;13410;52.114;5.718;2024-01-30T02:25:50;11.80;99.90
25504;DHT22;13410;52.114;5.718;2024-01-30T02:28:18;11.80;99.90
25504;DHT22;13410;52.114;5.718;2024-01-30T02:30:44;11.90;99.90
25504;DHT22;13410;52.114;5.718;2024-01-30T02:33:09;12.00;99.90
25504;DHT22;13410;52.114;5.718;2024-01-30T02:35:35;12.00;99.90
25504;DHT22;13410;52.114;5.718;2024-01-30T02:38:01;12.00;99.90
25504;DHT22;13410;52.114;5.718;2024-01-30T02:40:27;11.90;99.90
25504;DHT22;13410;52.114;5.718;2024-01-30T02:42:52;12.00;99.90
25504;DHT22;13410;52.114;5.718;2024-01-30T02:45:18;11.90;99.90
25504;DHT22;13410;52.114;5.718;2024-01-30T02:47:44;12.20;99.90
25504;DHT22;13410;52.114;5.718;2024-01-30T02:50:10;12.00;99.90
25504;DHT22;13410;52.114;5.718;2024-01-30T02:52:35;12.10;99.90
25504;DHT22;13410;52.114;5.718;2024-01-30T02:55:01;12.10;99.90
25504;DHT22;13410;52.114;5.718;2024-01-30T02:57:28;12.00;99.90
25504;DHT22;13410;52.114;5.718;2024-01-30T02:59:54;12.00;99.90
25504;DHT22;13410;52.114;5.718;2024-01-30T03:02:19;11.90;99.90
25504;DHT22;13410;52.114;5.718;2024-01-30T03:04:45;11.90;99.90
25504;DHT22;13410;52.114;5.718;2024-01-30T03:07:11;12.00;99.90
25504;DHT22;13410;52.114;5.718;2024-01-30T03:09:37;11.90;99.90
25504;DHT22;13410;52.114;5.718;2024-01-30T03:12:03;12.00;99.90
25504;DHT22;13410;52.114;5.718;2024-01-30T03:14:32;11.90;99.90
25504;DHT22;13410;52.114;5.718;2024-01-30T03:16:58;11.90;99.90
25504;DHT22;13410;52.114;5.718;2024-01-30T03:19:24;12.00;99.90
25504;DHT22;13410;52.114;5.718;2024-01-30T03:21:50;12.00;99.90
25504;DHT22;13410;52.114;5.718;2024-01-30T03:24:16;11.90;99.90
25504;DHT22;13410;52.114;5.718;2024-01-30T03:26:43;11.90;99.90
25504;DHT22;13410;52.114;5.718;2024-01-30T03:29:08;11.80;99.90
25504;DHT22;13410;52.114;5.718;2024-01-30T03:31:34;12.00;99.90
25504;DHT22;13410;52.114;5.718;2024-01-30T03:34:01;12.00;99.90
25504;DHT22;13410;52.114;5.718;2024-01-30T03:36:26;12.00;99.90
25504;DHT22;13410;52.114;5.718;2024-01-30T03:38:52;12.00;99.90
25504;DHT22;13410;52.114;5.718;2024-01-30T03:41:18;12.00;99.90
25504;DHT22;13410;52.114;5.718;2024-01-30T03:43:44;12.00;99.90
25504;DHT22;13410;52.114;5.718;2024-01-30T03:46:11;11.90;99.90
25504;DHT22;13410;52.114;5.718;2024-01-30T03:48:37;11.90;99.90
25504;DHT22;13410;52.114;5.718;2024-01-30T03:51:03;12.00;99.90
25504;DHT22;13410;52.114;5.718;2024-01-30T03:53:29;12.00;99.90
25504;DHT22;13410;52.114;5.718;2024-01-30T03:55:55;12.10;99.90
25504;DHT22;13410;52.114;5.718;2024-01-30T03:58:20;12.30;99.90
25504;DHT22;13410;52.114;5.718;2024-01-30T04:00:46;12.30;99.90
25504;DHT22;13410;52.114;5.718;2024-01-30T04:03:11;12.20;99.90
25504;DHT22;13410;52.114;5.718;2024-01-30T04:05:37;12.20;99.90
25504;DHT22;13410;52.114;5.718;2024-01-30T04:08:03;12.10;99.90
25504;DHT22;13410;52.114;5.718;2024-01-30T04:10:28;12.20;99.90
25504;DHT22;13410;52.114;5.718;2024-01-30T04:12:54;12.10;99.90
25504;DHT22;13410;52.114;5.718;2024-01-30T04:15:20;12.10;99.90
25504;DHT22;13410;52.114;5.718;2024-01-30T04:17:45;12.30;99.90
25504;DHT22;13410;52.114;5.718;2024-01-30T04:20:15;12.40;99.90
25504;DHT22;13410;52.114;5.718;2024-01-30T04:22:43;12.50;99.90
25504;DHT22;13410;52.114;5.718;2024-01-30T04:25:09;12.70;99.90
25504;DHT22;13410;52.114;5.718;2024-01-30T04:27:35;12.50;99.90
25504;DHT22;13410;52.114;5.718;2024-01-30T04:30:01;12.40;99.90
25504;DHT22;13410;52.114;5.718;2024-01-30T04:32:26;12.30;99.90
25504;DHT22;13410;52.114;5.718;2024-01-30T04:34:52;12.50;99.90
25504;DHT22;13410;52.114;5.718;2024-01-30T04:37:17;12.50;99.90
25504;DHT22;13410;52.114;5.718;2024-01-30T04:39:43;12.70;99.90
25504;DHT22;13410;52.114;5.718;2024-01-30T04:42:09;12.60;99.90
25504;DHT22;13410;52.114;5.718;2024-01-30T04:44:34;12.60;99.90
25504;DHT22;13410;52.114;5.718;2024-01-30T04:47:00;12.60;99.90
25504;DHT22;13410;52.114;5.718;2024-01-30T04:49:27;12.50;99.90
25504;DHT22;13410;52.114;5.718;2024-01-30T04:51:52;12.50;99.90
25504;DHT22;13410;52.114;5.718;2024-01-30T04:54:19;12.50;99.90
25504;DHT22;13410;52.114;5.718;2024-01-30T04:56:45;12.50;99.90
25504;DHT22;13410;52.114;5.718;2024-01-30T04:59:11;12.40;99.90
25504;DHT22;13410;52.114;5.718;2024-01-30T05:01:37;12.40;99.90
25504;DHT22;13410;52.114;5.718;2024-01-30T05:04:02;12.50;99.90
25504;DHT22;13410;52.114;5.718;2024-01-30T05:06:29;12.50;99.90
25504;DHT22;13410;52.114;5.718;2024-01-30T05:08:55;12.50;99.90
25504;DHT22;13410;52.114;5.718;2024-01-30T05:11:21;12.50;99.90
25504;DHT22;13410;52.114;5.718;2024-01-30T05:13:46;12.60;99.90
25504;DHT22;13410;52.114;5.718;2024-01-30T05:16:13;12.50;99.90
25504;DHT22;13410;52.114;5.718;2024-01-30T05:18:38;12.50;99.90
25504;DHT22;13410;52.114;5.718;2024-01-30T05:21:05;12.60;99.90
25504;DHT22;13410;52.114;5.718;2024-01-30T05:23:31;12.70;99.90
25504;DHT22;13410;52.114;5.718;2024-01-30T05:25:57;12.70;99.90
25504;DHT22;13410;52.114;5.718;2024-01-30T05:28:23;12.80;99.90
25504;DHT22;13410;52.114;5.718;2024-01-30T05:30:49;12.80;99.90
25504;DHT22;13410;52.114;5.718;2024-01-30T05:33:15;12.70;99.90
25504;DHT22;13410;52.114;5.718;2024-01-30T05:35:41;12.60;99.90
25504;DHT22;13410;52.114;5.718;2024-01-30T05:38:06;12.60;99.90
25504;DHT22;13410;52.114;5.718;2024-01-30T05:40:32;12.70;99.90
25504;DHT22;13410;52.114;5.718;2024-01-30T05:42:57;12.80;99.90
25504;DHT22;13410;52.114;5.718;2024-01-30T05:45:26;12.70;99.90
25504;DHT22;13410;52.114;5.718;2024-01-30T05:47:53;12.90;99.90
25504;DHT22;13410;52.114;5.718;2024-01-30T05:50:19;13.10;99.90
25504;DHT22;13410;52.114;5.718;2024-01-30T05:52:45;13.10;99.90
25504;DHT22;13410;52.114;5.718;2024-01-30T05:55:12;13.20;99.90
25504;DHT22;13410;52.114;5.718;2024-01-30T05:57:38;13.10;99.90
25504;DHT22;13410;52.114;5.718;2024-01-30T06:00:05;13.00;99.90
25504;DHT22;13410;52.114;5.718;2024-01-30T06:02:31;13.00;99.90
25504;DHT22;13410;52.114;5.718;2024-01-30T06:04:57;13.10;99.90
25504;DHT22;13410;52.114;5.718;2024-01-30T06:07:22;13.10;99.90
25504;DHT22;13410;52.114;5.718;2024-01-30T06:09:48;13.20;99.90
25504;DHT22;13410;52.114;5.718;2024-01-30T06:12:13;13.10;99.90
25504;DHT22;13410;52.114;5.718;2024-01-30T06:14:39;13.20;99.90
25504;DHT22;13410;52.114;5.718;2024-01-30T06:17:05;13.20;99.90
25504;DHT22;13410;52.114;5.718;2024-01-30T06:19:30;13.00;99.90
25504;DHT22;13410;52.114;5.718;2024-01-30T06:21:57;13.20;99.90
25504;DHT22;13410;52.114;5.718;2024-01-30T06:24:22;13.20;99.90
25504;DHT22;13410;52.114;5.718;2024-01-30T06:26:48;13.20;99.90
25504;DHT22;13410;52.114;5.718;2024-01-30T06:29:13;13.20;99.90
25504;DHT22;13410;52.114;5.718;2024-01-30T06:31:43;13.30;99.90
25504;DHT22;13410;52.114;5.718;2024-01-30T06:34:11;13.30;99.90
25504;DHT22;13410;52.114;5.718;2024-01-30T06:36:38;13.50;99.90
25504;DHT22;13410;52.114;5.718;2024-01-30T06:39:04;13.60;99.90
25504;DHT22;13410;52.114;5.718;2024-01-30T06:41:29;13.60;99.90
25504;DHT22;13410;52.114;5.718;2024-01-30T06:43:56;13.60;99.90
25504;DHT22;13410;52.114;5.718;2024-01-30T06:46:21;13.50;99.90
25504;DHT22;13410;52.114;5.718;2024-01-30T06:48:47;13.60;99.90
25504;DHT22;13410;52.114;5.718;2024-01-30T06:51:13;13.40;99.90
25504;DHT22;13410;52.114;5.718;2024-01-30T06:53:38;13.40;99.90
25504;DHT22;13410;52.114;5.718;2024-01-30T06:56:05;13.40;99.90
25504;DHT22;13410;52.114;5.718;2024-01-30T06:58:31;13.50;99.90
25504;DHT22;13410;52.114;5.718;2024-01-30T07:00:58;13.60;99.90
25504;DHT22;13410;52.114;5.718;2024-01-30T07:03:24;13.60;99.90
25504;DHT22;13410;52.114;5.718;2024-01-30T07:05:50;13.50;99.90
25504;DHT22;13410;52.114;5.718;2024-01-30T07:08:16;13.60;99.90
25504;DHT22;13410;52.114;5.718;2024-01-30T07:10:43;13.50;99.90
25504;DHT22;13410;52.114;5.718;2024-01-30T07:13:10;13.70;99.90
25504;DHT22;13410;52.114;5.718;2024-01-30T07:15:35;13.70;99.90
25504;DHT22;13410;52.114;5.718;2024-01-30T07:18:02;13.70;99.90
25504;DHT22;13410;52.114;5.718;2024-01-30T07:20:28;13.80;99.90
25504;DHT22;13410;52.114;5.718;2024-01-30T07:22:56;13.80;99.90
25504;DHT22;13410;52.114;5.718;2024-01-30T07:25:22;13.90;99.90
25504;DHT22;13410;52.114;5.718;2024-01-30T07:27:55;13.90;99.90
25504;DHT22;13410;52.114;5.718;2024-01-30T07:30:20;14.00;99.90
25504;DHT22;13410;52.114;5.718;2024-01-30T07:32:47;13.90;99.90
25504;DHT22;13410;52.114;5.718;2024-01-30T07:35:14;14.00;99.90
25504;DHT22;13410;52.114;5.718;2024-01-30T07:37:41;13.80;99.90
25504;DHT22;13410;52.114;5.718;2024-01-30T07:40:07;13.60;99.90
25504;DHT22;13410;52.114;5.718;2024-01-30T07:42:33;13.70;99.90
25504;DHT22;13410;52.114;5.718;2024-01-30T07:45:00;13.70;99.90
25504;DHT22;13410;52.114;5.718;2024-01-30T07:47:26;13.70;99.90
25504;DHT22;13410;52.114;5.718;2024-01-30T07:49:52;13.70;99.90
25504;DHT22;13410;52.114;5.718;2024-01-30T07:52:20;13.60;99.90
25504;DHT22;13410;52.114;5.718;2024-01-30T07:54:50;13.80;99.90
25504;DHT22;13410;52.114;5.718;2024-01-30T07:57:16;13.70;99.90
25504;DHT22;13410;52.114;5.718;2024-01-30T07:59:45;13.80;99.90
25504;DHT22;13410;52.114;5.718;2024-01-30T08:02:14;13.80;99.90
25504;DHT22;13410;52.114;5.718;2024-01-30T08:04:40;13.80;99.90
25504;DHT22;13410;52.114;5.718;2024-01-30T08:07:06;13.90;99.90
25504;DHT22;13410;52.114;5.718;2024-01-30T08:09:32;13.80;99.90
25504;DHT22;13410;52.114;5.718;2024-01-30T08:11:58;13.80;99.90
25504;DHT22;13410;52.114;5.718;2024-01-30T08:14:23;13.80;99.90
25504;DHT22;13410;52.114;5.718;2024-01-30T08:16:49;13.90;99.90
25504;DHT22;13410;52.114;5.718;2024-01-30T08:19:15;14.00;99.90
25504;DHT22;13410;52.114;5.718;2024-01-30T08:21:42;14.30;99.90
25504;DHT22;13410;52.114;5.718;2024-01-30T08:24:08;14.20;99.90
25504;DHT22;13410;52.114;5.718;2024-01-30T08:26:34;14.20;99.90
25504;DHT22;13410;52.114;5.718;2024-01-30T08:29:00;14.20;99.90
25504;DHT22;13410;52.114;5.718;2024-01-30T08:31:26;14.30;99.90
25504;DHT22;13410;52.114;5.718;2024-01-30T08:33:52;14.40;99.90
25504;DHT22;13410;52.114;5.718;2024-01-30T08:36:18;14.30;99.90
25504;DHT22;13410;52.114;5.718;2024-01-30T08:38:43;14.20;99.90
25504;DHT22;13410;52.114;5.718;2024-01-30T08:41:10;14.40;99.90
25504;DHT22;13410;52.114;5.718;2024-01-30T08:43:36;14.30;99.90
25504;DHT22;13410;52.114;5.718;2024-01-30T08:46:02;14.50;99.90
25504;DHT22;13410;52.114;5.718;2024-01-30T08:48:28;14.60;99.90
25504;DHT22;13410;52.114;5.718;2024-01-30T08:50:53;14.60;99.90
25504;DHT22;13410;52.114;5.718;2024-01-30T08:53:19;14.70;99.90
25504;DHT22;13410;52.114;5.718;2024-01-30T08:55:45;14.80;99.90
25504;DHT22;13410;52.114;5.718;2024-01-30T08:58:11;14.80;99.90
25504;DHT22;13410;52.114;5.718;2024-01-30T09:00:36;14.70;99.90
25504;DHT22;13410;52.114;5.718;2024-01-30T09:03:03;14.80;99.90
25504;DHT22;13410;52.114;5.718;2024-01-30T09:05:30;14.90;99.90
25504;DHT22;13410;52.114;5.718;2024-01-30T09:07:56;14.90;99.90
25504;DHT22;13410;52.114;5.718;2024-01-30T09:10:21;14.90;99.90
25504;DHT22;13410;52.114;5.718;2024-01-30T09:12:48;14.90;99.90
25504;DHT22;13410;52.114;5.718;2024-01-30T09:15:15;15.10;99.90
25504;DHT22;13410;52.114;5.718;2024-01-30T09:17:40;15.10;99.90
25504;DHT22;13410;52.114;5.718;2024-01-30T09:20:06;15.10;99.90
25504;DHT22;13410;52.114;5.718;2024-01-30T09:22:32;15.40;99.90
25504;DHT22;13410;52.114;5.718;2024-01-30T09:24:58;15.30;99.90
25504;DHT22;13410;52.114;5.718;2024-01-30T09:27:24;15.30;99.90
25504;DHT22;13410;52.114;5.718;2024-01-30T09:29:49;15.20;99.90
25504;DHT22;13410;52.114;5.718;2024-01-30T09:32:16;15.00;99.90
25504;DHT22;13410;52.114;5.718;2024-01-30T09:34:43;15.10;99.90
25504;DHT22;13410;52.114;5.718;2024-01-30T09:37:08;15.20;99.90
25504;DHT22;13410;52.114;5.718;2024-01-30T09:39:34;15.30;99.90
25504;DHT22;13410;52.114;5.718;2024-01-30T09:42:26;15.40;99.90
25504;DHT22;13410;52.114;5.718;2024-01-30T09:44:53;15.50;99.90
25504;DHT22;13410;52.114;5.718;2024-01-30T09:47:19;15.60;99.90
25504;DHT22;13410;52.114;5.718;2024-01-30T09:49:45;15.70;99.90
25504;DHT22;13410;52.114;5.718;2024-01-30T09:52:11;15.80;99.90
25504;DHT22;13410;52.114;5.718;2024-01-30T09:54:38;15.90;99.90
25504;DHT22;13410;52.114;5.718;2024-01-30T09:57:04;15.80;99.90
25504;DHT22;13410;52.114;5.718;2024-01-30T09:59:31;16.00;99.90
25504;DHT22;13410;52.114;5.718;2024-01-30T10:01:57;16.00;99.90
25504;DHT22;13410;52.114;5.718;2024-01-30T10:04:24;16.00;99.90
25504;DHT22;13410;52.114;5.718;2024-01-30T10:06:51;15.90;99.90
25504;DHT22;13410;52.114;5.718;2024-01-30T10:09:16;15.80;99.90
25504;DHT22;13410;52.114;5.718;2024-01-30T10:11:42;15.80;99.90
25504;DHT22;13410;52.114;5.718;2024-01-30T10:14:08;15.80;99.90
25504;DHT22;13410;52.114;5.718;2024-01-30T10:16:37;15.70;99.90
25504;DHT22;13410;52.114;5.718;2024-01-30T10:19:02;15.80;99.90
25504;DHT22;13410;52.114;5.718;2024-01-30T10:21:29;15.70;99.90
25504;DHT22;13410;52.114;5.718;2024-01-30T10:23:55;15.70;99.90
25504;DHT22;13410;52.114;5.718;2024-01-30T10:26:21;15.80;99.90
25504;DHT22;13410;52.114;5.718;2024-01-30T10:28:48;16.00;99.90
25504;DHT22;13410;52.114;5.718;2024-01-30T10:31:18;16.00;99.90
25504;DHT22;13410;52.114;5.718;2024-01-30T10:33:46;16.00;99.90
25504;DHT22;13410;52.114;5.718;2024-01-30T10:36:14;15.90;99.90
25504;DHT22;13410;52.114;5.718;2024-01-30T10:38:43;15.90;99.90
25504;DHT22;13410;52.114;5.718;2024-01-30T10:41:13;16.00;99.90
25504;DHT22;13410;52.114;5.718;2024-01-30T10:43:50;16.00;99.90
25504;DHT22;13410;52.114;5.718;2024-01-30T10:46:20;16.10;99.90
25504;DHT22;13410;52.114;5.718;2024-01-30T10:48:58;16.00;99.90
25504;DHT22;13410;52.114;5.718;2024-01-30T10:51:28;16.10;99.90
25504;DHT22;13410;52.114;5.718;2024-01-30T10:53:55;16.20;99.90
25504;DHT22;13410;52.114;5.718;2024-01-30T10:56:22;16.30;99.90
25504;DHT22;13410;52.114;5.718;2024-01-30T10:58:50;16.50;99.90
25504;DHT22;13410;52.114;5.718;2024-01-30T11:01:17;16.50;99.90
25504;DHT22;13410;52.114;5.718;2024-01-30T11:03:43;16.50;99.90
25504;DHT22;13410;52.114;5.718;2024-01-30T11:06:12;16.30;99.90
25504;DHT22;13410;52.114;5.718;2024-01-30T11:08:43;16.20;99.90
25504;DHT22;13410;52.114;5.718;2024-01-30T11:11:10;16.30;99.90
25504;DHT22;13410;52.114;5.718;2024-01-30T11:13:36;16.40;99.90
25504;DHT22;13410;52.114;5.718;2024-01-30T11:16:03;16.30;99.90
25504;DHT22;13410;52.114;5.718;2024-01-30T11:18:30;16.30;99.90
25504;DHT22;13410;52.114;5.718;2024-01-30T11:20:57;16.20;99.90
25504;DHT22;13410;52.114;5.718;2024-01-30T11:23:23;16.30;99.90
25504;DHT22;13410;52.114;5.718;2024-01-30T11:25:49;16.10;99.90
25504;DHT22;13410;52.114;5.718;2024-01-30T11:28:18;16.10;99.90
25504;DHT22;13410;52.114;5.718;2024-01-30T11:30:44;16.20;99.90
25504;DHT22;13410;52.114;5.718;2024-01-30T11:33:12;16.20;99.90
25504;DHT22;13410;52.114;5.718;2024-01-30T11:35:38;16.20;99.90
25504;DHT22;13410;52.114;5.718;2024-01-30T11:38:05;16.30;99.90
25504;DHT22;13410;52.114;5.718;2024-01-30T11:40:32;16.40;99.90
25504;DHT22;13410;52.114;5.718;2024-01-30T11:42:59;16.30;99.90
25504;DHT22;13410;52.114;5.718;2024-01-30T11:45:29;16.20;99.90
25504;DHT22;13410;52.114;5.718;2024-01-30T11:47:56;16.00;99.90
25504;DHT22;13410;52.114;5.718;2024-01-30T11:50:22;15.90;99.90
25504;DHT22;13410;52.114;5.718;2024-01-30T11:52:48;16.00;99.90
25504;DHT22;13410;52.114;5.718;2024-01-30T11:55:15;15.90;99.90
25504;DHT22;13410;52.114;5.718;2024-01-30T11:57:41;15.90;99.90
25504;DHT22;13410;52.114;5.718;2024-01-30T12:00:31;16.00;99.90
25504;DHT22;13410;52.114;5.718;2024-01-30T12:02:58;16.00;99.90
25504;DHT22;13410;52.114;5.718;2024-01-30T12:05:27;16.30;99.90
25504;DHT22;13410;52.114;5.718;2024-01-30T12:07:53;16.20;99.90
25504;DHT22;13410;52.114;5.718;2024-01-30T12:10:19;16.20;99.90
25504;DHT22;13410;52.114;5.718;2024-01-30T12:12:51;16.00;99.90
25504;DHT22;13410;52.114;5.718;2024-01-30T12:15:19;16.10;99.90
25504;DHT22;13410;52.114;5.718;2024-01-30T12:17:47;16.00;99.90
25504;DHT22;13410;52.114;5.718;2024-01-30T12:20:14;15.70;99.90
25504;DHT22;13410;52.114;5.718;2024-01-30T12:22:43;15.90;99.90
25504;DHT22;13410;52.114;5.718;2024-01-30T12:25:10;15.80;99.90
25504;DHT22;13410;52.114;5.718;2024-01-30T12:27:38;15.90;99.90
25504;DHT22;13410;52.114;5.718;2024-01-30T12:30:09;15.50;99.90
25504;DHT22;13410;52.114;5.718;2024-01-30T12:32:40;15.40;99.90
25504;DHT22;13410;52.114;5.718;2024-01-30T12:35:19;15.50;99.90
25504;DHT22;13410;52.114;5.718;2024-01-30T12:37:46;15.40;99.90
25504;DHT22;13410;52.114;5.718;2024-01-30T12:40:14;15.60;99.90
25504;DHT22;13410;52.114;5.718;2024-01-30T12:42:46;15.70;99.90
25504;DHT22;13410;52.114;5.718;2024-01-30T12:45:14;15.80;99.90
25504;DHT22;13410;52.114;5.718;2024-01-30T12:47:49;15.90;99.90
25504;DHT22;13410;52.114;5.718;2024-01-30T12:50:15;16.00;99.90
25504;DHT22;13410;52.114;5.718;2024-01-30T12:52:44;16.00;99.90
25504;DHT22;13410;52.114;5.718;2024-01-30T12:55:10;15.80;99.90
25504;DHT22;13410;52.114;5.718;2024-01-30T12:57:36;15.40;99.90
25504;DHT22;13410;52.114;5.718;2024-01-30T13:00:02;15.10;99.90
25504;DHT22;13410;52.114;5.718;2024-01-30T13:02:28;14.90;99.90
25504;DHT22;13410;52.114;5.718;2024-01-30T13:05:00;14.80;99.90
25504;DHT22;13410;52.114;5.718;2024-01-30T13:07:26;14.40;99.90
25504;DHT22;13410;52.114;5.718;2024-01-30T13:09:51;14.40;99.90
25504;DHT22;13410;52.114;5.718;2024-01-30T13:12:17;14.20;99.90
25504;DHT22;13410;52.114;5.718;2024-01-30T13:14:43;14.50;99.90
25504;DHT22;13410;52.114;5.718;2024-01-30T13:17:09;14.30;99.90
25504;DHT22;13410;52.114;5.718;2024-01-30T13:19:35;14.00;99.90
25504;DHT22;13410;52.114;5.718;2024-01-30T13:22:02;13.90;99.90
25504;DHT22;13410;52.114;5.718;2024-01-30T13:24:28;13.80;99.90
25504;DHT22;13410;52.114;5.718;2024-01-30T13:26:54;13.80;99.90
25504;DHT22;13410;52.114;5.718;2024-01-30T13:29:19;13.80;99.90
25504;DHT22;13410;52.114;5.718;2024-01-30T13:31:45;14.00;99.90
25504;DHT22;13410;52.114;5.718;2024-01-30T13:34:12;14.20;99.90
25504;DHT22;13410;52.114;5.718;2024-01-30T13:36:39;14.10;99.90
25504;DHT22;13410;52.114;5.718;2024-01-30T13:39:04;14.30;99.90
25504;DHT22;13410;52.114;5.718;2024-01-30T13:41:34;14.30;99.90
25504;DHT22;13410;52.114;5.718;2024-01-30T13:44:01;14.30;99.90
25504;DHT22;13410;52.114;5.718;2024-01-30T13:46:29;14.20;99.90
25504;DHT22;13410;52.114;5.718;2024-01-30T13:48:54;14.40;99.90
25504;DHT22;13410;52.114;5.718;2024-01-30T13:51:20;14.40;99.90
25504;DHT22;13410;52.114;5.718;2024-01-30T13:53:46;14.40;99.90
25504;DHT22;13410;52.114;5.718;2024-01-30T13:56:11;14.40;99.90
25504;DHT22;13410;52.114;5.718;2024-01-30T13:58:37;14.40;99.90
25504;DHT22;13410;52.114;5.718;2024-01-30T14:01:03;14.40;99.90
25504;DHT22;13410;52.114;5.718;2024-01-30T14:03:29;14.50;99.90
25504;DHT22;13410;52.114;5.718;2024-01-30T14:05:54;14.60;99.90
25504;DHT22;13410;52.114;5.718;2024-01-30T14:08:20;14.50;99.90
25504;DHT22;13410;52.114;5.718;2024-01-30T14:10:52;14.40;99.90
25504;DHT22;13410;52.114;5.718;2024-01-30T14:13:17;14.10;99.90
25504;DHT22;13410;52.114;5.718;2024-01-30T14:15:43;14.00;99.90
25504;DHT22;13410;52.114;5.718;2024-01-30T14:18:10;14.00;99.90
25504;DHT22;13410;52.114;5.718;2024-01-30T14:20:36;14.00;99.90
25504;DHT22;13410;52.114;5.718;2024-01-30T14:23:02;14.20;99.90
25504;DHT22;13410;52.114;5.718;2024-01-30T14:25:27;14.30;99.90
25504;DHT22;13410;52.114;5.718;2024-01-30T14:27:53;14.20;99.90
25504;DHT22;13410;52.114;5.718;2024-01-30T14:30:18;14.10;99.90
25504;DHT22;13410;52.114;5.718;2024-01-30T14:32:44;14.00;99.90
25504;DHT22;13410;52.114;5.718;2024-01-30T14:35:10;14.00;99.90
25504;DHT22;13410;52.114;5.718;2024-01-30T14:37:37;14.10;99.90
25504;DHT22;13410;52.114;5.718;2024-01-30T14:40:04;14.20;99.90
25504;DHT22;13410;52.114;5.718;2024-01-30T14:42:32;14.20;99.90
25504;DHT22;13410;52.114;5.718;2024-01-30T14:45:01;14.20;99.90
25504;DHT22;13410;52.114;5.718;2024-01-30T14:47:26;14.20;99.90
25504;DHT22;13410;52.114;5.718;2024-01-30T14:49:52;14.00;99.90
25504;DHT22;13410;52.114;5.718;2024-01-30T14:52:18;14.30;99.90
25504;DHT22;13410;52.114;5.718;2024-01-30T14:54:43;14.00;99.90
25504;DHT22;13410;52.114;5.718;2024-01-30T14:57:09;14.10;99.90
25504;DHT22;13410;52.114;5.718;2024-01-30T14:59:36;14.00;99.90
25504;DHT22;13410;52.114;5.718;2024-01-30T15:02:01;14.10;99.90
25504;DHT22;13410;52.114;5.718;2024-01-30T15:04:27;13.90;99.90
25504;DHT22;13410;52.114;5.718;2024-01-30T15:06:53;13.90;99.90
25504;DHT22;13410;52.114;5.718;2024-01-30T15:09:19;13.90;99.90
25504;DHT22;13410;52.114;5.718;2024-01-30T15:11:47;14.00;99.90
25504;DHT22;13410;52.114;5.718;2024-01-30T15:14:14;13.90;99.90
25504;DHT22;13410;52.114;5.718;2024-01-30T15:16:40;13.70;99.90
25504;DHT22;13410;52.114;5.718;2024-01-30T15:19:05;13.80;99.90
25504;DHT22;13410;52.114;5.718;2024-01-30T15:21:32;13.70;99.90
25504;DHT22;13410;52.114;5.718;2024-01-30T15:23:57;13.80;99.90
25504;DHT22;13410;52.114;5.718;2024-01-30T15:26:23;14.00;99.90